Aeroporto :
LOGIN :

Iscrizione | Disclaimer

   EN    FR    IT 

 










Sommario :    VFR   VFR Marginale   IFR   IFR Intensivo   IFR Molto Intensivo
Visibilità : 
Base nubi : 
>= 8 km
>= 3000ft
5 / 8 km
1000 / 3000 ft
1500m / 5 km
500 / 1000 ft
800 / 1500m
200 / 500 ft
< 800m
< 200 ft
Simboli :   Temporali  Nebbia  Neve Forte  Precipitazioni Forti  Vento > 20 kt
SIGMETs :   Varie  Temporali  Ghiacco  Turbolenza  Onda orograficha  Ceneri Vulcaniche







- Altitudine del aeroporto : 46 ft
- Codice IATA : SNN


EINN - Shannon

ULTIMO METAR :
  • 210800Z 14016KT 9999 FEW012 OVC016 12/09 Q1014 NOSIG

METARs OBSOLETI :
  • 210730Z 15018KT 9999 FEW014 BKN017 12/09 Q1014 NOSIG
  • 210700Z 16016KT 9999 FEW015 BKN018 12/09 Q1013 NOSIG
  • 210630Z 15009G19KT 9999 BKN017 12/09 Q1013 NOSIG
  • 210600Z 14010KT 9999 FEW013 BKN015 12/09 Q1013 NOSIG
  • 210530Z 15012KT 9999 BKN022 12/09 Q1013 NOSIG

TAF TAF EINN
Valido dal 21 a 06 ore il 22 a 06 ore UTC


210500Z 2106/2206 16016KT 9999 SCT012 BKN020
TEMPO 2106/2117 17018G28KT
PROB30
TEMPO 2106/2109 BKN012
BECMG 2117/2120 16019G29KT
TEMPO 2122/2202 17024G39KT
PROB40
TEMPO 2203/2206 -RA BKN013
PROB30
TEMPO 2204/2206 BKN009
Nessun NOTAM noto per questo aeroporto.



MetMap, La meteo Aeronautica in un colpo d'occhio ! - Copyright ORBIFLY Dicembre 2007 - Disclaimer

ORBIFLY MET'MAP TEAM :

Programmazione e sviluppo : Alexandra Zaïnal
Concezione e sviluppo : Baudouin d'Aumeries
Co-Programmazione e sviluppo : Marc-Olivier Méhu
Supporto tecnico e logistico : Manuel Goepfert
Aiuto per la traduzione : Arnaldo La Scala

Contatto : metmap@orbifly.com




FONTI E CREDITI :

   NOAA